sensor_id;sensor_type;location;lat;lon;timestamp;noise_LAeq;noise_LA_min;noise_LA_max;noise_LA01;noise_LA95
66589;Laerm;53447;49.272;11.070;2023-05-15T00:01:54;38.89;33.86;42.39;;
66589;Laerm;53447;49.272;11.070;2023-05-15T00:04:19;45.99;31.94;64.57;;
66589;Laerm;53447;49.272;11.070;2023-05-15T00:06:44;39.08;32.40;45.70;;
66589;Laerm;53447;49.272;11.070;2023-05-15T00:09:10;39.12;32.81;45.30;;
66589;Laerm;53447;49.272;11.070;2023-05-15T00:11:35;38.02;32.81;40.97;;
66589;Laerm;53447;49.272;11.070;2023-05-15T00:14:01;38.11;32.81;49.58;;
66589;Laerm;53447;49.272;11.070;2023-05-15T00:16:26;41.33;33.19;44.63;;
66589;Laerm;53447;49.272;11.070;2023-05-15T00:18:51;38.95;33.54;42.77;;
66589;Laerm;53447;49.272;11.070;2023-05-15T00:21:16;38.72;33.54;44.55;;
66589;Laerm;53447;49.272;11.070;2023-05-15T00:23:42;40.61;35.19;43.61;;
66589;Laerm;53447;49.272;11.070;2023-05-15T00:26:07;40.65;36.02;43.80;;
66589;Laerm;53447;49.272;11.070;2023-05-15T00:28:32;39.20;34.16;41.89;;
66589;Laerm;53447;49.272;11.070;2023-05-15T00:30:57;39.05;33.19;41.64;;
66589;Laerm;53447;49.272;11.070;2023-05-15T00:33:22;40.00;35.62;46.18;;
66589;Laerm;53447;49.272;11.070;2023-05-15T00:35:48;40.46;36.55;42.49;;
66589;Laerm;53447;49.272;11.070;2023-05-15T00:38:13;40.47;36.38;42.65;;
66589;Laerm;53447;49.272;11.070;2023-05-15T00:40:38;39.76;33.86;42.27;;
66589;Laerm;53447;49.272;11.070;2023-05-15T00:43:05;38.35;32.40;41.26;;
66589;Laerm;53447;49.272;11.070;2023-05-15T00:45:30;38.35;33.19;42.49;;
66589;Laerm;53447;49.272;11.070;2023-05-15T00:47:56;39.19;32.40;43.86;;
66589;Laerm;53447;49.272;11.070;2023-05-15T00:50:22;39.25;34.16;42.40;;
66589;Laerm;53447;49.272;11.070;2023-05-15T00:52:47;39.85;35.82;42.40;;
66589;Laerm;53447;49.272;11.070;2023-05-15T00:55:13;40.24;37.02;42.44;;
66589;Laerm;53447;49.272;11.070;2023-05-15T00:57:38;40.41;36.38;42.47;;
66589;Laerm;53447;49.272;11.070;2023-05-15T01:00:05;40.18;35.62;42.18;;
66589;Laerm;53447;49.272;11.070;2023-05-15T01:02:34;39.76;35.19;42.36;;
66589;Laerm;53447;49.272;11.070;2023-05-15T01:04:59;40.27;36.20;42.27;;
66589;Laerm;53447;49.272;11.070;2023-05-15T01:07:24;40.63;36.87;42.49;;
66589;Laerm;53447;49.272;11.070;2023-05-15T01:09:50;41.40;35.62;46.31;;
66589;Laerm;53447;49.272;11.070;2023-05-15T01:12:17;40.62;35.62;45.41;;
66589;Laerm;53447;49.272;11.070;2023-05-15T01:14:42;39.93;34.44;43.37;;
66589;Laerm;53447;49.272;11.070;2023-05-15T01:17:07;39.32;35.41;42.04;;
66589;Laerm;53447;49.272;11.070;2023-05-15T01:19:33;40.79;35.19;43.54;;
66589;Laerm;53447;49.272;11.070;2023-05-15T01:27:15;40.27;36.20;42.36;;
66589;Laerm;53447;49.272;11.070;2023-05-15T01:32:29;40.23;36.38;44.65;;
66589;Laerm;53447;49.272;11.070;2023-05-15T01:35:09;40.30;35.85;42.27;;
66589;Laerm;53447;49.272;11.070;2023-05-15T01:37:39;40.47;37.17;42.65;;
66589;Laerm;53447;49.272;11.070;2023-05-15T01:40:05;40.04;35.62;42.08;;
66589;Laerm;53447;49.272;11.070;2023-05-15T01:42:35;40.09;35.82;42.44;;
66589;Laerm;53447;49.272;11.070;2023-05-15T01:45:05;40.28;36.55;42.61;;
66589;Laerm;53447;49.272;11.070;2023-05-15T01:47:37;40.16;36.20;42.57;;
66589;Laerm;53447;49.272;11.070;2023-05-15T01:50:03;40.30;36.20;42.69;;
66589;Laerm;53447;49.272;11.070;2023-05-15T01:52:34;40.21;35.82;52.70;;
66589;Laerm;53447;49.272;11.070;2023-05-15T01:55:01;40.10;35.62;42.22;;
66589;Laerm;53447;49.272;11.070;2023-05-15T01:57:27;40.49;36.02;43.92;;
66589;Laerm;53447;49.272;11.070;2023-05-15T01:59:52;40.32;36.38;42.36;;
66589;Laerm;53447;49.272;11.070;2023-05-15T02:02:19;41.11;36.87;42.89;;
66589;Laerm;53447;49.272;11.070;2023-05-15T02:04:44;54.44;39.30;69.08;;
66589;Laerm;53447;49.272;11.070;2023-05-15T02:07:10;40.71;36.20;43.44;;
66589;Laerm;53447;49.272;11.070;2023-05-15T02:09:36;39.65;34.70;42.13;;
66589;Laerm;53447;49.272;11.070;2023-05-15T02:12:02;39.66;34.70;43.19;;
66589;Laerm;53447;49.272;11.070;2023-05-15T02:14:28;39.87;35.82;43.04;;
66589;Laerm;53447;49.272;11.070;2023-05-15T02:16:53;39.85;36.55;42.08;;
66589;Laerm;53447;49.272;11.070;2023-05-15T02:19:19;39.95;35.82;42.18;;
66589;Laerm;53447;49.272;11.070;2023-05-15T02:21:44;39.84;35.82;42.73;;
66589;Laerm;53447;49.272;11.070;2023-05-15T02:24:10;40.16;35.41;46.76;;
66589;Laerm;53447;49.272;11.070;2023-05-15T02:26:37;40.14;36.55;42.44;;
66589;Laerm;53447;49.272;11.070;2023-05-15T02:34:17;40.69;36.02;53.85;;
66589;Laerm;53447;49.272;11.070;2023-05-15T02:36:47;43.82;35.41;64.90;;
66589;Laerm;53447;49.272;11.070;2023-05-15T02:39:15;54.79;37.02;71.22;;
66589;Laerm;53447;49.272;11.070;2023-05-15T02:41:42;56.48;38.53;70.61;;
66589;Laerm;53447;49.272;11.070;2023-05-15T02:44:08;56.82;38.83;71.06;;
66589;Laerm;53447;49.272;11.070;2023-05-15T02:46:35;57.74;38.93;70.51;;
66589;Laerm;53447;49.272;11.070;2023-05-15T02:49:01;57.72;40.11;72.46;;
66589;Laerm;53447;49.272;11.070;2023-05-15T02:51:26;57.82;39.12;71.76;;
66589;Laerm;53447;49.272;11.070;2023-05-15T02:53:51;57.09;39.12;71.12;;
66589;Laerm;53447;49.272;11.070;2023-05-15T02:56:18;56.76;39.80;70.17;;
66589;Laerm;53447;49.272;11.070;2023-05-15T02:58:43;56.73;39.96;70.56;;
66589;Laerm;53447;49.272;11.070;2023-05-15T03:01:08;54.50;39.80;69.31;;
66589;Laerm;53447;49.272;11.070;2023-05-15T03:03:33;51.40;38.73;63.24;;
66589;Laerm;53447;49.272;11.070;2023-05-15T03:05:59;52.68;39.38;66.29;;
66589;Laerm;53447;49.272;11.070;2023-05-15T03:08:27;52.49;40.39;64.90;;
66589;Laerm;53447;49.272;11.070;2023-05-15T03:10:52;53.23;40.97;63.58;;
66589;Laerm;53447;49.272;11.070;2023-05-15T03:13:17;51.96;41.15;64.42;;
66589;Laerm;53447;49.272;11.070;2023-05-15T03:15:43;52.97;41.43;64.79;;
66589;Laerm;53447;49.272;11.070;2023-05-15T03:18:09;52.70;40.79;65.22;;
66589;Laerm;53447;49.272;11.070;2023-05-15T03:20:34;52.28;40.92;63.25;;
66589;Laerm;53447;49.272;11.070;2023-05-15T03:23:00;53.44;40.66;65.82;;
66589;Laerm;53447;49.272;11.070;2023-05-15T03:25:25;53.33;40.32;65.20;;
66589;Laerm;53447;49.272;11.070;2023-05-15T03:27:51;53.15;40.69;64.45;;
66589;Laerm;53447;49.272;11.070;2023-05-15T03:30:16;55.29;41.54;66.97;;
66589;Laerm;53447;49.272;11.070;2023-05-15T03:32:41;53.44;39.64;66.29;;
66589;Laerm;53447;49.272;11.070;2023-05-15T03:35:06;52.42;40.25;64.66;;
66589;Laerm;53447;49.272;11.070;2023-05-15T03:37:32;52.33;39.96;65.13;;
66589;Laerm;53447;49.272;11.070;2023-05-15T03:39:57;54.52;40.59;65.11;;
66589;Laerm;53447;49.272;11.070;2023-05-15T03:42:22;53.74;40.91;65.46;;
66589;Laerm;53447;49.272;11.070;2023-05-15T03:44:48;53.36;40.53;70.01;;
66589;Laerm;53447;49.272;11.070;2023-05-15T03:47:14;54.14;40.97;68.12;;
66589;Laerm;53447;49.272;11.070;2023-05-15T03:49:40;54.40;40.03;66.51;;
66589;Laerm;53447;49.272;11.070;2023-05-15T03:52:05;48.63;39.64;62.15;;
66589;Laerm;53447;49.272;11.070;2023-05-15T03:54:30;55.70;40.32;68.99;;
66589;Laerm;53447;49.272;11.070;2023-05-15T03:56:56;53.85;40.46;67.20;;
66589;Laerm;53447;49.272;11.070;2023-05-15T03:59:21;54.49;39.64;67.01;;
66589;Laerm;53447;49.272;11.070;2023-05-15T04:01:46;55.35;40.32;69.55;;
66589;Laerm;53447;49.272;11.070;2023-05-15T04:04:12;52.10;38.86;74.40;;
66589;Laerm;53447;49.272;11.070;2023-05-15T04:06:37;46.67;38.53;60.24;;
66589;Laerm;53447;49.272;11.070;2023-05-15T04:09:02;52.94;38.93;66.07;;
66589;Laerm;53447;49.272;11.070;2023-05-15T04:11:27;51.61;38.53;64.75;;
66589;Laerm;53447;49.272;11.070;2023-05-15T04:13:53;53.14;39.21;66.08;;
66589;Laerm;53447;49.272;11.070;2023-05-15T04:16:18;55.81;39.80;69.45;;
66589;Laerm;53447;49.272;11.070;2023-05-15T04:18:43;53.08;38.18;67.45;;
66589;Laerm;53447;49.272;11.070;2023-05-15T04:21:08;52.15;38.93;67.92;;
66589;Laerm;53447;49.272;11.070;2023-05-15T04:23:33;52.69;38.20;68.16;;
66589;Laerm;53447;49.272;11.070;2023-05-15T04:25:59;54.52;39.12;66.75;;
66589;Laerm;53447;49.272;11.070;2023-05-15T04:28:25;49.37;39.72;64.06;;
66589;Laerm;53447;49.272;11.070;2023-05-15T04:30:50;50.48;39.03;66.04;;
66589;Laerm;53447;49.272;11.070;2023-05-15T04:33:15;48.92;38.20;65.43;;
66589;Laerm;53447;49.272;11.070;2023-05-15T04:35:41;51.21;38.53;65.67;;
66589;Laerm;53447;49.272;11.070;2023-05-15T04:38:06;52.83;38.63;65.29;;
66589;Laerm;53447;49.272;11.070;2023-05-15T04:40:31;53.27;38.93;65.29;;
66589;Laerm;53447;49.272;11.070;2023-05-15T04:42:56;53.13;38.73;69.78;;
66589;Laerm;53447;49.272;11.070;2023-05-15T04:45:22;50.91;38.93;67.17;;
66589;Laerm;53447;49.272;11.070;2023-05-15T04:47:48;53.56;39.30;65.96;;
66589;Laerm;53447;49.272;11.070;2023-05-15T04:50:13;52.31;39.48;68.62;;
66589;Laerm;53447;49.272;11.070;2023-05-15T04:52:39;52.41;38.08;65.58;;
66589;Laerm;53447;49.272;11.070;2023-05-15T04:55:05;54.75;38.93;70.48;;
66589;Laerm;53447;49.272;11.070;2023-05-15T04:57:30;54.07;39.03;72.88;;
66589;Laerm;53447;49.272;11.070;2023-05-15T04:59:55;53.29;39.03;68.73;;
66589;Laerm;53447;49.272;11.070;2023-05-15T05:02:22;51.26;39.88;67.54;;
66589;Laerm;53447;49.272;11.070;2023-05-15T05:04:47;55.04;39.64;79.45;;
66589;Laerm;53447;49.272;11.070;2023-05-15T05:07:13;55.71;38.42;72.82;;
66589;Laerm;53447;49.272;11.070;2023-05-15T05:09:38;52.98;38.08;72.54;;
66589;Laerm;53447;49.272;11.070;2023-05-15T05:12:04;49.35;39.12;61.82;;
66589;Laerm;53447;49.272;11.070;2023-05-15T05:14:29;54.10;39.48;67.47;;
66589;Laerm;53447;49.272;11.070;2023-05-15T05:16:55;50.53;38.20;64.97;;
66589;Laerm;53447;49.272;11.070;2023-05-15T05:19:20;52.72;39.88;65.79;;
66589;Laerm;53447;49.272;11.070;2023-05-15T05:21:46;50.96;38.53;64.81;;
66589;Laerm;53447;49.272;11.070;2023-05-15T05:24:11;55.53;38.20;73.50;;
66589;Laerm;53447;49.272;11.070;2023-05-15T05:26:36;52.79;40.85;65.90;;
66589;Laerm;53447;49.272;11.070;2023-05-15T05:29:01;53.34;40.25;65.47;;
66589;Laerm;53447;49.272;11.070;2023-05-15T05:31:27;53.63;38.93;66.22;;
66589;Laerm;53447;49.272;11.070;2023-05-15T05:33:52;52.22;39.39;64.47;;
66589;Laerm;53447;49.272;11.070;2023-05-15T05:36:17;52.05;39.39;66.59;;
66589;Laerm;53447;49.272;11.070;2023-05-15T05:38:42;54.53;39.03;67.59;;
66589;Laerm;53447;49.272;11.070;2023-05-15T05:41:08;54.35;38.20;69.70;;
66589;Laerm;53447;49.272;11.070;2023-05-15T05:43:33;48.00;38.31;64.88;;
66589;Laerm;53447;49.272;11.070;2023-05-15T05:45:58;51.00;38.42;68.63;;
66589;Laerm;53447;49.272;11.070;2023-05-15T05:48:23;54.04;39.21;70.68;;
66589;Laerm;53447;49.272;11.070;2023-05-15T05:50:50;53.35;40.11;66.85;;
66589;Laerm;53447;49.272;11.070;2023-05-15T05:53:16;54.49;39.21;67.76;;
66589;Laerm;53447;49.272;11.070;2023-05-15T05:55:41;52.98;39.96;64.88;;
66589;Laerm;53447;49.272;11.070;2023-05-15T05:58:06;55.12;39.72;67.57;;
66589;Laerm;53447;49.272;11.070;2023-05-15T06:00:32;51.57;39.21;64.27;;
66589;Laerm;53447;49.272;11.070;2023-05-15T06:02:58;53.00;38.93;64.57;;
66589;Laerm;53447;49.272;11.070;2023-05-15T06:05:26;54.89;40.79;68.02;;
66589;Laerm;53447;49.272;11.070;2023-05-15T06:07:55;53.70;39.64;66.67;;
66589;Laerm;53447;49.272;11.070;2023-05-15T06:10:20;51.45;39.03;64.40;;
66589;Laerm;53447;49.272;11.070;2023-05-15T06:12:46;53.30;39.80;65.29;;
66589;Laerm;53447;49.272;11.070;2023-05-15T06:15:12;55.03;37.96;67.17;;
66589;Laerm;53447;49.272;11.070;2023-05-15T06:17:37;51.14;37.45;64.17;;
66589;Laerm;53447;49.272;11.070;2023-05-15T06:20:03;54.07;38.20;66.42;;
66589;Laerm;53447;49.272;11.070;2023-05-15T06:22:31;54.40;39.48;66.97;;
66589;Laerm;53447;49.272;11.070;2023-05-15T06:24:57;53.71;37.71;66.46;;
66589;Laerm;53447;49.272;11.070;2023-05-15T06:27:23;49.01;36.38;65.79;;
66589;Laerm;53447;49.272;11.070;2023-05-15T06:29:48;57.22;38.20;83.96;;
66589;Laerm;53447;49.272;11.070;2023-05-15T06:32:14;55.33;36.87;78.93;;
66589;Laerm;53447;49.272;11.070;2023-05-15T06:34:39;51.25;38.93;66.37;;
66589;Laerm;53447;49.272;11.070;2023-05-15T06:37:04;56.79;39.30;74.56;;
66589;Laerm;53447;49.272;11.070;2023-05-15T06:39:29;54.73;38.73;68.02;;
66589;Laerm;53447;49.272;11.070;2023-05-15T06:41:55;54.20;38.63;73.23;;
66589;Laerm;53447;49.272;11.070;2023-05-15T06:44:25;54.92;37.02;67.60;;
66589;Laerm;53447;49.272;11.070;2023-05-15T06:46:50;50.79;39.56;65.08;;
66589;Laerm;53447;49.272;11.070;2023-05-15T06:49:15;55.44;39.72;74.43;;
66589;Laerm;53447;49.272;11.070;2023-05-15T06:51:41;51.34;39.72;69.03;;
66589;Laerm;53447;49.272;11.070;2023-05-15T06:54:06;54.09;36.87;68.05;;
66589;Laerm;53447;49.272;11.070;2023-05-15T06:56:31;54.68;37.31;66.70;;
66589;Laerm;53447;49.272;11.070;2023-05-15T06:58:56;53.13;37.31;65.96;;
66589;Laerm;53447;49.272;11.070;2023-05-15T07:01:22;54.78;38.53;70.11;;
66589;Laerm;53447;49.272;11.070;2023-05-15T07:03:47;55.73;39.88;66.13;;
66589;Laerm;53447;49.272;11.070;2023-05-15T07:06:12;56.79;41.09;69.28;;
66589;Laerm;53447;49.272;11.070;2023-05-15T07:08:37;52.78;37.84;67.40;;
66589;Laerm;53447;49.272;11.070;2023-05-15T07:11:03;53.26;37.02;65.06;;
66589;Laerm;53447;49.272;11.070;2023-05-15T07:13:28;56.81;37.45;73.69;;
66589;Laerm;53447;49.272;11.070;2023-05-15T07:15:53;48.92;37.02;66.56;;
66589;Laerm;53447;49.272;11.070;2023-05-15T07:18:18;55.11;36.71;66.70;;
66589;Laerm;53447;49.272;11.070;2023-05-15T07:20:43;54.52;39.21;65.52;;
66589;Laerm;53447;49.272;11.070;2023-05-15T07:23:09;48.63;36.38;66.41;;
66589;Laerm;53447;49.272;11.070;2023-05-15T07:25:34;52.50;37.84;67.18;;
66589;Laerm;53447;49.272;11.070;2023-05-15T07:28:00;56.28;36.38;71.99;;
66589;Laerm;53447;49.272;11.070;2023-05-15T07:30:25;53.68;38.20;65.89;;
66589;Laerm;53447;49.272;11.070;2023-05-15T07:32:50;49.70;37.71;73.60;;
66589;Laerm;53447;49.272;11.070;2023-05-15T07:35:15;54.87;37.02;67.23;;
66589;Laerm;53447;49.272;11.070;2023-05-15T07:37:41;55.83;38.31;67.09;;
66589;Laerm;53447;49.272;11.070;2023-05-15T07:40:06;54.37;37.17;74.31;;
66589;Laerm;53447;49.272;11.070;2023-05-15T07:42:32;55.50;38.31;71.15;;
66589;Laerm;53447;49.272;11.070;2023-05-15T07:44:57;51.66;37.45;63.73;;
66589;Laerm;53447;49.272;11.070;2023-05-15T07:47:22;50.93;38.93;63.97;;
66589;Laerm;53447;49.272;11.070;2023-05-15T07:49:47;50.88;39.03;65.02;;
66589;Laerm;53447;49.272;11.070;2023-05-15T07:52:12;55.70;39.96;69.68;;
66589;Laerm;53447;49.272;11.070;2023-05-15T07:54:38;53.26;39.48;66.93;;
66589;Laerm;53447;49.272;11.070;2023-05-15T07:57:05;54.42;39.12;68.90;;
66589;Laerm;53447;49.272;11.070;2023-05-15T07:59:30;50.33;38.53;63.82;;
66589;Laerm;53447;49.272;11.070;2023-05-15T08:01:56;53.46;37.84;69.53;;
66589;Laerm;53447;49.272;11.070;2023-05-15T08:04:21;51.40;37.45;68.81;;
66589;Laerm;53447;49.272;11.070;2023-05-15T08:06:46;54.63;39.03;79.25;;
66589;Laerm;53447;49.272;11.070;2023-05-15T08:09:11;52.21;40.53;66.62;;
66589;Laerm;53447;49.272;11.070;2023-05-15T08:11:37;53.93;38.83;70.38;;
66589;Laerm;53447;49.272;11.070;2023-05-15T08:14:02;55.74;39.12;70.86;;
66589;Laerm;53447;49.272;11.070;2023-05-15T08:16:27;51.15;37.17;69.59;;
66589;Laerm;53447;49.272;11.070;2023-05-15T08:18:53;49.65;37.71;64.73;;
66589;Laerm;53447;49.272;11.070;2023-05-15T08:21:22;50.60;37.58;64.98;;
66589;Laerm;53447;49.272;11.070;2023-05-15T08:23:47;56.04;38.20;71.58;;
66589;Laerm;53447;49.272;11.070;2023-05-15T08:26:12;54.98;37.17;69.60;;
66589;Laerm;53447;49.272;11.070;2023-05-15T08:28:37;54.21;38.83;71.63;;
66589;Laerm;53447;49.272;11.070;2023-05-15T08:31:03;54.26;38.53;69.13;;
66589;Laerm;53447;49.272;11.070;2023-05-15T08:33:28;40.72;36.38;62.14;;
66589;Laerm;53447;49.272;11.070;2023-05-15T08:35:53;46.35;38.08;61.24;;
66589;Laerm;53447;49.272;11.070;2023-05-15T08:38:19;54.47;40.79;67.46;;
66589;Laerm;53447;49.272;11.070;2023-05-15T08:40:45;55.65;40.39;71.00;;
66589;Laerm;53447;49.272;11.070;2023-05-15T08:43:11;54.13;39.30;67.40;;
66589;Laerm;53447;49.272;11.070;2023-05-15T08:45:40;53.42;38.31;66.75;;
66589;Laerm;53447;49.272;11.070;2023-05-15T08:48:09;55.65;38.93;67.82;;
66589;Laerm;53447;49.272;11.070;2023-05-15T08:50:35;55.17;38.63;66.38;;
66589;Laerm;53447;49.272;11.070;2023-05-15T08:53:02;55.25;39.48;69.22;;
66589;Laerm;53447;49.272;11.070;2023-05-15T08:55:27;57.06;41.21;69.78;;
66589;Laerm;53447;49.272;11.070;2023-05-15T08:57:52;56.66;41.03;67.21;;
66589;Laerm;53447;49.272;11.070;2023-05-15T09:00:18;51.32;38.73;67.88;;
66589;Laerm;53447;49.272;11.070;2023-05-15T09:02:45;49.95;38.31;63.64;;
66589;Laerm;53447;49.272;11.070;2023-05-15T09:05:10;54.67;40.85;64.93;;
66589;Laerm;53447;49.272;11.070;2023-05-15T09:07:38;58.15;41.32;67.76;;
66589;Laerm;53447;49.272;11.070;2023-05-15T09:10:05;53.09;38.20;66.32;;
66589;Laerm;53447;49.272;11.070;2023-05-15T09:12:32;55.87;39.30;79.91;;
66589;Laerm;53447;49.272;11.070;2023-05-15T09:17:35;58.50;41.15;73.68;;
66589;Laerm;53447;49.272;11.070;2023-05-15T09:20:03;58.49;41.21;68.69;;
66589;Laerm;53447;49.272;11.070;2023-05-15T09:22:33;56.50;39.64;72.47;;
66589;Laerm;53447;49.272;11.070;2023-05-15T09:24:58;57.96;40.46;71.81;;
66589;Laerm;53447;49.272;11.070;2023-05-15T09:27:23;57.43;39.30;78.25;;
66589;Laerm;53447;49.272;11.070;2023-05-15T09:29:48;54.41;38.83;72.35;;
66589;Laerm;53447;49.272;11.070;2023-05-15T09:32:18;53.43;38.63;67.97;;
66589;Laerm;53447;49.272;11.070;2023-05-15T09:34:43;52.24;37.96;66.72;;
66589;Laerm;53447;49.272;11.070;2023-05-15T09:37:11;48.61;37.31;62.28;;
66589;Laerm;53447;49.272;11.070;2023-05-15T09:39:40;45.64;37.31;64.11;;
66589;Laerm;53447;49.272;11.070;2023-05-15T09:42:07;56.31;38.20;72.98;;
66589;Laerm;53447;49.272;11.070;2023-05-15T09:44:33;53.92;37.31;72.90;;
66589;Laerm;53447;49.272;11.070;2023-05-15T09:46:59;58.92;40.59;70.96;;
66589;Laerm;53447;49.272;11.070;2023-05-15T09:49:26;58.90;38.08;75.68;;
66589;Laerm;53447;49.272;11.070;2023-05-15T09:51:52;56.85;40.18;69.35;;
66589;Laerm;53447;49.272;11.070;2023-05-15T09:54:19;54.34;39.21;67.49;;
66589;Laerm;53447;49.272;11.070;2023-05-15T09:56:47;56.79;40.11;74.13;;
66589;Laerm;53447;49.272;11.070;2023-05-15T09:59:13;59.44;39.64;74.88;;
66589;Laerm;53447;49.272;11.070;2023-05-15T10:01:41;58.51;42.08;76.97;;
66589;Laerm;53447;49.272;11.070;2023-05-15T10:04:06;53.51;39.03;69.38;;
66589;Laerm;53447;49.272;11.070;2023-05-15T10:06:35;56.17;38.31;81.19;;
66589;Laerm;53447;49.272;11.070;2023-05-15T10:09:01;56.90;39.48;78.72;;
66589;Laerm;53447;49.272;11.070;2023-05-15T10:11:30;56.93;38.20;79.29;;
66589;Laerm;53447;49.272;11.070;2023-05-15T10:13:58;54.25;39.88;66.69;;
66589;Laerm;53447;49.272;11.070;2023-05-15T10:16:23;52.45;38.93;67.08;;
66589;Laerm;53447;49.272;11.070;2023-05-15T10:18:50;62.19;39.96;79.36;;
66589;Laerm;53447;49.272;11.070;2023-05-15T10:21:16;54.81;39.80;69.70;;
66589;Laerm;53447;49.272;11.070;2023-05-15T10:23:42;54.01;39.96;71.79;;
66589;Laerm;53447;49.272;11.070;2023-05-15T10:26:41;55.07;40.32;68.20;;
66589;Laerm;53447;49.272;11.070;2023-05-15T10:29:00;52.90;39.56;68.79;;
66589;Laerm;53447;49.272;11.070;2023-05-15T10:31:26;52.95;38.42;68.13;;
66589;Laerm;53447;49.272;11.070;2023-05-15T10:33:53;57.24;40.03;72.24;;
66589;Laerm;53447;49.272;11.070;2023-05-15T10:36:19;56.20;38.63;74.87;;
66589;Laerm;53447;49.272;11.070;2023-05-15T10:38:45;55.39;39.03;73.11;;
66589;Laerm;53447;49.272;11.070;2023-05-15T10:41:11;56.79;37.17;75.24;;
66589;Laerm;53447;49.272;11.070;2023-05-15T10:43:37;55.36;40.31;72.83;;
66589;Laerm;53447;49.272;11.070;2023-05-15T10:46:05;57.58;41.03;74.25;;
66589;Laerm;53447;49.272;11.070;2023-05-15T10:48:31;55.77;39.21;67.12;;
66589;Laerm;53447;49.272;11.070;2023-05-15T10:50:58;53.07;39.48;66.64;;
66589;Laerm;53447;49.272;11.070;2023-05-15T10:53:24;53.69;39.21;68.15;;
66589;Laerm;53447;49.272;11.070;2023-05-15T10:55:49;53.73;39.96;64.96;;
66589;Laerm;53447;49.272;11.070;2023-05-15T10:58:15;54.97;39.72;66.90;;
66589;Laerm;53447;49.272;11.070;2023-05-15T11:00:41;52.57;39.21;67.61;;
66589;Laerm;53447;49.272;11.070;2023-05-15T11:03:07;52.86;40.11;64.17;;
66589;Laerm;53447;49.272;11.070;2023-05-15T11:10:43;55.06;39.48;72.55;;
66589;Laerm;53447;49.272;11.070;2023-05-15T11:13:09;52.97;39.21;71.31;;
66589;Laerm;53447;49.272;11.070;2023-05-15T11:15:45;54.25;39.80;71.15;;
66589;Laerm;53447;49.272;11.070;2023-05-15T11:18:11;50.80;38.53;65.72;;
66589;Laerm;53447;49.272;11.070;2023-05-15T11:20:37;50.10;39.39;65.06;;
66589;Laerm;53447;49.272;11.070;2023-05-15T11:23:03;54.22;39.12;71.31;;
66589;Laerm;53447;49.272;11.070;2023-05-15T11:25:29;45.99;38.63;62.62;;
66589;Laerm;53447;49.272;11.070;2023-05-15T11:27:57;52.25;38.83;69.63;;
66589;Laerm;53447;49.272;11.070;2023-05-15T11:30:38;52.36;39.39;69.46;;
66589;Laerm;53447;49.272;11.070;2023-05-15T11:33:08;51.87;40.03;71.03;;
66589;Laerm;53447;49.272;11.070;2023-05-15T11:35:45;56.68;39.56;71.12;;
66589;Laerm;53447;49.272;11.070;2023-05-15T11:38:15;52.46;40.11;67.41;;
66589;Laerm;53447;49.272;11.070;2023-05-15T11:40:50;54.48;39.21;73.03;;
66589;Laerm;53447;49.272;11.070;2023-05-15T11:43:20;56.04;39.48;69.67;;
66589;Laerm;53447;49.272;11.070;2023-05-15T11:45:47;54.46;39.04;66.90;;
66589;Laerm;53447;49.272;11.070;2023-05-15T11:48:13;53.22;39.12;66.56;;
66589;Laerm;53447;49.272;11.070;2023-05-15T11:50:39;52.88;38.83;69.96;;
66589;Laerm;53447;49.272;11.070;2023-05-15T11:53:06;53.47;38.53;65.22;;
66589;Laerm;53447;49.272;11.070;2023-05-15T11:55:32;56.04;38.73;74.26;;
66589;Laerm;53447;49.272;11.070;2023-05-15T11:57:58;54.16;38.63;72.24;;
66589;Laerm;53447;49.272;11.070;2023-05-15T12:00:23;55.52;39.72;70.13;;
66589;Laerm;53447;49.272;11.070;2023-05-15T12:02:48;53.14;39.12;69.82;;
66589;Laerm;53447;49.272;11.070;2023-05-15T12:05:14;53.45;38.53;68.89;;
66589;Laerm;53447;49.272;11.070;2023-05-15T12:07:42;54.14;38.42;66.77;;
66589;Laerm;53447;49.272;11.070;2023-05-15T12:10:08;53.58;39.56;73.25;;
66589;Laerm;53447;49.272;11.070;2023-05-15T12:12:35;54.30;40.11;69.55;;
66589;Laerm;53447;49.272;11.070;2023-05-15T12:15:01;51.62;38.20;66.08;;
66589;Laerm;53447;49.272;11.070;2023-05-15T12:17:26;47.88;37.84;65.32;;
66589;Laerm;53447;49.272;11.070;2023-05-15T12:19:52;47.18;37.45;63.34;;
66589;Laerm;53447;49.272;11.070;2023-05-15T12:22:19;54.50;38.63;72.37;;
66589;Laerm;53447;49.272;11.070;2023-05-15T12:24:45;52.96;38.53;64.33;;
66589;Laerm;53447;49.272;11.070;2023-05-15T12:27:11;52.55;38.20;66.63;;
66589;Laerm;53447;49.272;11.070;2023-05-15T12:29:37;55.35;39.30;70.84;;
66589;Laerm;53447;49.272;11.070;2023-05-15T12:32:03;55.00;40.11;68.80;;
66589;Laerm;53447;49.272;11.070;2023-05-15T12:34:29;52.71;38.42;67.02;;
66589;Laerm;53447;49.272;11.070;2023-05-15T12:36:54;51.35;39.12;64.62;;
66589;Laerm;53447;49.272;11.070;2023-05-15T12:39:20;52.41;39.88;66.06;;
66589;Laerm;53447;49.272;11.070;2023-05-15T12:41:45;54.51;38.83;73.84;;
66589;Laerm;53447;49.272;11.070;2023-05-15T12:44:16;55.40;39.53;72.04;;
66589;Laerm;53447;49.272;11.070;2023-05-15T12:46:42;57.39;39.80;74.31;;
66589;Laerm;53447;49.272;11.070;2023-05-15T12:49:07;54.01;38.63;65.23;;
66589;Laerm;53447;49.272;11.070;2023-05-15T12:51:32;54.22;39.30;70.12;;
66589;Laerm;53447;49.272;11.070;2023-05-15T12:53:58;54.08;39.80;67.81;;
66589;Laerm;53447;49.272;11.070;2023-05-15T12:56:23;55.42;39.39;71.75;;
66589;Laerm;53447;49.272;11.070;2023-05-15T12:58:49;53.86;38.73;66.04;;
66589;Laerm;53447;49.272;11.070;2023-05-15T13:01:14;56.04;39.72;72.16;;
66589;Laerm;53447;49.272;11.070;2023-05-15T13:03:43;47.39;40.11;63.32;;
66589;Laerm;53447;49.272;11.070;2023-05-15T13:06:09;54.22;39.80;68.04;;
66589;Laerm;53447;49.272;11.070;2023-05-15T13:08:37;54.67;39.80;72.60;;
66589;Laerm;53447;49.272;11.070;2023-05-15T13:11:03;50.65;39.80;65.45;;
66589;Laerm;53447;49.272;11.070;2023-05-15T13:13:41;48.92;39.48;64.93;;
66589;Laerm;53447;49.272;11.070;2023-05-15T13:16:16;52.98;39.72;70.07;;
66589;Laerm;53447;49.272;11.070;2023-05-15T13:18:41;51.12;38.73;64.21;;
66589;Laerm;53447;49.272;11.070;2023-05-15T13:21:06;50.13;39.72;63.14;;
66589;Laerm;53447;49.272;11.070;2023-05-15T13:23:32;52.32;39.72;69.95;;
66589;Laerm;53447;49.272;11.070;2023-05-15T13:25:57;52.01;39.48;67.08;;
66589;Laerm;53447;49.272;11.070;2023-05-15T13:28:22;51.72;40.59;67.60;;
66589;Laerm;53447;49.272;11.070;2023-05-15T13:30:48;52.64;40.25;65.18;;
66589;Laerm;53447;49.272;11.070;2023-05-15T13:33:13;54.59;39.96;67.00;;
66589;Laerm;53447;49.272;11.070;2023-05-15T13:35:39;55.55;40.46;67.59;;
66589;Laerm;53447;49.272;11.070;2023-05-15T13:38:05;56.78;40.11;69.63;;
66589;Laerm;53447;49.272;11.070;2023-05-15T13:40:30;55.62;39.56;68.36;;
66589;Laerm;53447;49.272;11.070;2023-05-15T13:43:01;52.38;39.56;63.38;;
66589;Laerm;53447;49.272;11.070;2023-05-15T13:45:27;51.35;39.12;68.33;;
66589;Laerm;53447;49.272;11.070;2023-05-15T13:47:53;52.45;39.48;68.91;;